Time;durP1;ratioP1;P1;durP2;ratioP2;P2;SDS_P1;SDS_P2;PMS_P1;PMS_P2;Temp;Humidity;BMP_temperature;BMP_pressure;BME280_temperature;BME280_humidity;BME280_pressure;Samples;Min_cycle;Max_cycle;Signal;HPM_P1;HPM_P2
2023/06/26 00:01:04;;;;;;;10.20;9.30;;;;;;;21.67;73.67;101220.72;4991650;28;20054;-82
2023/06/26 00:03:33;;;;;;;10.52;9.70;;;;;;;21.58;73.75;101216.38;4992313;28;20130;-81
2023/06/26 00:06:00;;;;;;;10.55;9.65;;;;;;;21.56;73.56;101210.75;4992561;28;20051;-81
2023/06/26 00:08:28;;;;;;;11.23;10.20;;;;;;;21.54;73.58;101205.09;4991978;28;20047;-81
2023/06/26 00:10:54;;;;;;;10.70;9.52;;;;;;;21.54;73.95;101210.50;4991862;28;20129;-81
2023/06/26 00:13:22;;;;;;;10.02;9.15;;;;;;;21.50;74.12;101210.78;4992163;28;20047;-82
2023/06/26 00:15:51;;;;;;;10.48;9.57;;;;;;;21.49;73.78;101214.72;4992537;28;20518;-82
2023/06/26 00:18:17;;;;;;;10.32;9.40;;;;;;;21.46;73.89;101217.69;4992658;28;20061;-82
2023/06/26 00:20:44;;;;;;;11.43;9.88;;;;;;;21.43;73.84;101210.59;4992290;28;20047;-82
2023/06/26 00:23:12;;;;;;;10.68;9.35;;;;;;;21.41;73.01;101210.34;4992756;28;20174;-82
2023/06/26 00:25:40;;;;;;;9.85;9.07;;;;;;;21.39;73.45;101212.81;4992266;28;20419;-82
2023/06/26 00:28:06;;;;;;;10.07;9.07;;;;;;;21.38;73.30;101203.97;4974075;28;20105;-83
2023/06/26 00:30:33;;;;;;;9.32;8.52;;;;;;;21.38;72.12;101205.94;4992328;28;20050;-83
2023/06/26 00:33:00;;;;;;;9.52;8.63;;;;;;;21.38;71.82;101193.13;4992377;28;20043;-82
2023/06/26 00:35:26;;;;;;;13.18;8.40;;;;;;;21.37;70.93;101191.66;4990773;28;20468;-82
2023/06/26 00:37:53;;;;;;;9.57;8.35;;;;;;;21.35;71.43;101188.00;4992269;28;20047;-82
2023/06/26 00:40:19;;;;;;;9.30;7.95;;;;;;;21.38;70.90;101189.69;4974560;28;20061;-82
2023/06/26 00:42:46;;;;;;;9.23;8.52;;;;;;;21.34;70.98;101187.25;4990345;28;20097;-83
2023/06/26 00:45:13;;;;;;;8.85;8.15;;;;;;;21.34;70.37;101187.25;4974803;28;20102;-82
2023/06/26 00:47:40;;;;;;;10.15;8.38;;;;;;;21.32;70.37;101187.03;4992354;28;20120;-82
2023/06/26 00:50:08;;;;;;;9.57;8.77;;;;;;;21.29;70.46;101190.72;4992206;28;20073;-83
2023/06/26 00:52:35;;;;;;;9.05;8.25;;;;;;;21.27;70.83;101185.09;4974528;28;20047;-82
2023/06/26 00:55:02;;;;;;;8.75;8.07;;;;;;;21.25;70.95;101182.88;4994324;28;20078;-82
2023/06/26 00:57:30;;;;;;;8.98;8.18;;;;;;;21.23;71.55;101184.63;4995041;28;20126;-82
2023/06/26 00:59:56;;;;;;;8.77;7.93;;;;;;;21.22;71.55;101191.28;4995438;28;20047;-82
2023/06/26 01:02:23;;;;;;;8.85;8.05;;;;;;;21.16;71.89;101191.31;4994160;28;20204;-82
2023/06/26 01:04:52;;;;;;;9.30;8.50;;;;;;;21.11;71.57;101196.75;4995505;28;20050;-81
2023/06/26 01:07:21;;;;;;;8.40;7.60;;;;;;;21.09;72.70;101193.81;4995204;28;20047;-82
2023/06/26 01:09:48;;;;;;;8.45;7.65;;;;;;;21.09;72.21;101207.34;4994880;28;20562;-81
2023/06/26 01:12:15;;;;;;;8.45;7.85;;;;;;;21.11;71.49;101199.44;4995127;28;20043;-82
2023/06/26 01:14:42;;;;;;;9.07;8.23;;;;;;;21.12;72.19;101209.03;4993876;28;20061;-82
2023/06/26 01:17:14;;;;;;;9.20;8.30;;;;;;;21.14;72.63;101201.16;4995465;28;20043;-82
2023/06/26 01:19:43;;;;;;;8.48;7.78;;;;;;;21.15;71.60;101202.63;4977525;28;20082;-82
2023/06/26 01:22:31;;;;;;;8.75;7.95;;;;;;;21.17;71.29;101202.88;4993533;28;20077;-82
2023/06/26 01:25:21;;;;;;;9.27;8.25;;;;;;;21.23;71.19;101209.72;4994777;28;20042;-82
2023/06/26 01:27:54;;;;;;;8.98;8.07;;;;;;;21.29;71.40;101215.09;4993628;28;20560;-82
2023/06/26 01:30:21;;;;;;;8.55;7.85;;;;;;;21.32;71.21;101224.19;4977220;28;20072;-81
2023/06/26 01:32:49;;;;;;;7.72;7.18;;;;;;;21.33;70.45;101223.69;4977131;28;20057;-81
2023/06/26 01:35:15;;;;;;;11.95;8.20;;;;;;;21.36;70.77;101230.81;4995443;28;20523;-81
2023/06/26 01:37:42;;;;;;;8.68;7.97;;;;;;;21.35;70.78;101237.47;4993271;28;20498;-80
2023/06/26 01:40:09;;;;;;;8.52;7.82;;;;;;;21.35;70.33;101236.72;4994326;28;20057;-81
2023/06/26 01:42:36;;;;;;;8.63;7.72;;;;;;;21.34;70.68;101241.41;4993390;28;20073;-81
2023/06/26 01:45:19;;;;;;;8.70;7.68;;;;;;;21.33;70.71;101247.31;4994525;28;20093;-80
2023/06/26 01:47:50;;;;;;;7.38;6.72;;;;;;;21.29;70.72;101242.19;4993508;28;20055;-81
2023/06/26 01:50:22;;;;;;;7.40;6.80;;;;;;;21.27;70.60;101245.38;4977551;28;20083;-81
2023/06/26 01:53:02;;;;;;;8.02;6.70;;;;;;;21.26;70.44;101238.50;4993238;28;20051;-82
2023/06/26 01:55:35;;;;;;;8.10;7.30;;;;;;;21.23;70.36;101236.06;4976232;28;20492;-80
2023/06/26 01:58:03;;;;;;;7.18;6.47;;;;;;;21.18;70.87;101245.69;4976885;28;20062;-80
2023/06/26 02:00:31;;;;;;;6.82;6.32;;;;;;;21.16;70.16;101245.44;4976521;28;20134;-80
2023/06/26 02:02:58;;;;;;;7.93;6.07;;;;;;;21.15;70.66;101243.22;4976795;28;20594;-81
2023/06/26 02:05:25;;;;;;;6.65;6.13;;;;;;;21.12;70.71;101239.56;4975684;28;20054;-81
2023/06/26 02:07:51;;;;;;;7.85;6.07;;;;;;;21.06;71.08;101244.25;4994086;28;20047;-81
2023/06/26 02:10:18;;;;;;;5.97;5.38;;;;;;;21.05;71.10;101244.75;4994210;28;20492;-81
2023/06/26 02:12:45;;;;;;;6.20;5.38;;;;;;;21.01;70.71;101247.72;4960886;28;20559;-81
2023/06/26 02:15:13;;;;;;;6.35;5.47;;;;;;;20.96;71.11;101248.50;4961154;28;20503;-81
2023/06/26 02:17:40;;;;;;;7.95;5.25;;;;;;;20.93;71.08;101247.50;4976781;28;20134;-81
2023/06/26 02:20:09;;;;;;;9.48;5.63;;;;;;;20.90;71.11;101248.50;4994302;28;20057;-81
2023/06/26 02:22:36;;;;;;;5.60;4.45;;;;;;;20.87;70.92;101252.22;4976343;28;20057;-81
2023/06/26 02:25:03;;;;;;;8.63;5.22;;;;;;;20.82;71.59;101252.22;4993194;28;20138;-81
2023/06/26 02:27:32;;;;;;;11.38;5.68;;;;;;;20.81;71.52;101250.75;4976337;28;20078;-81
2023/06/26 02:29:58;;;;;;;7.57;5.40;;;;;;;20.75;71.96;101250.81;4994144;28;20051;-81
2023/06/26 02:32:25;;;;;;;5.78;4.72;;;;;;;20.71;72.28;101247.63;4976391;28;20073;-80
2023/06/26 02:34:51;;;;;;;7.65;4.88;;;;;;;20.69;72.42;101260.16;4992608;28;20077;-80
2023/06/26 02:37:18;;;;;;;8.77;5.03;;;;;;;20.66;72.73;101256.50;4993397;28;20047;-80
2023/06/26 02:39:46;;;;;;;6.35;4.75;;;;;;;20.61;73.22;101259.94;4976239;28;20050;-81
2023/06/26 02:42:12;;;;;;;6.68;4.85;;;;;;;20.61;73.22;101262.66;4976254;28;20057;-80
2023/06/26 02:44:40;;;;;;;7.07;4.72;;;;;;;20.59;73.37;101257.72;4976050;28;20047;-80
2023/06/26 02:47:07;;;;;;;5.07;4.50;;;;;;;20.57;73.56;101256.75;4976106;28;20097;-80
2023/06/26 02:49:37;;;;;;;8.93;4.38;;;;;;;20.54;73.97;101257.75;4992448;28;20051;-79
2023/06/26 02:52:05;;;;;;;5.20;3.90;;;;;;;20.52;73.79;101260.22;4991807;28;20527;-80
2023/06/26 02:54:32;;;;;;;6.55;4.40;;;;;;;20.50;74.01;101258.00;4976028;28;20055;-79
2023/06/26 02:57:02;;;;;;;11.13;5.18;;;;;;;20.46;74.15;101276.44;4976554;28;20180;-81
2023/06/26 02:59:30;;;;;;;10.20;4.50;;;;;;;20.43;74.65;101277.44;4992234;28;20427;-80
2023/06/26 03:01:57;;;;;;;7.40;4.70;;;;;;;20.42;74.70;101273.25;4992155;28;20101;-80
2023/06/26 03:04:53;;;;;;;10.73;4.70;;;;;;;20.40;74.57;101269.56;4986273;28;20147;-80
2023/06/26 03:07:20;;;;;;;8.48;4.90;;;;;;;20.38;75.24;101272.06;4993244;28;20050;-80
2023/06/26 03:09:47;;;;;;;9.73;4.70;;;;;;;20.38;75.36;101277.47;4992024;28;20058;-80
2023/06/26 03:12:13;;;;;;;6.00;4.47;;;;;;;20.36;75.42;101283.34;4993500;28;20046;-79
2023/06/26 03:14:42;;;;;;;9.70;4.80;;;;;;;20.34;75.65;101291.22;4991742;28;20487;-80
2023/06/26 03:17:12;;;;;;;7.50;4.60;;;;;;;20.31;75.62;101289.50;4991586;28;20051;-82
2023/06/26 03:19:42;;;;;;;8.27;4.47;;;;;;;20.30;75.97;101286.06;4975564;28;20050;-82
2023/06/26 03:22:17;;;;;;;13.90;4.80;;;;;;;20.30;75.81;101280.66;4991675;28;20042;-81
2023/06/26 03:24:47;;;;;;;13.32;4.72;;;;;;;20.29;76.38;101291.94;4991697;28;20110;-82
2023/06/26 03:27:14;;;;;;;11.05;4.63;;;;;;;20.28;76.19;101291.22;4992943;28;20070;-82
2023/06/26 03:29:44;;;;;;;13.10;4.43;;;;;;;20.27;76.48;101292.44;4975146;28;20077;-80
2023/06/26 03:32:11;;;;;;;9.15;4.68;;;;;;;20.27;76.62;101291.72;4975721;28;20131;-81
2023/06/26 03:34:38;;;;;;;12.05;4.43;;;;;;;20.27;76.76;101287.03;4975133;28;20047;-81
2023/06/26 03:37:05;;;;;;;9.77;4.38;;;;;;;20.26;76.81;101282.84;4991287;28;20082;-83
2023/06/26 03:39:32;;;;;;;14.57;4.82;;;;;;;20.22;77.03;101289.75;4991476;28;20059;-81
2023/06/26 03:42:00;;;;;;;10.27;4.95;;;;;;;20.19;77.47;101290.72;4975077;28;20077;-81
2023/06/26 03:44:27;;;;;;;8.35;4.88;;;;;;;20.18;77.44;101297.34;4993011;28;20047;-81
2023/06/26 03:46:54;;;;;;;11.57;5.10;;;;;;;20.15;77.71;101309.88;4975002;28;20494;-80
2023/06/26 03:49:22;;;;;;;6.53;4.43;;;;;;;20.16;77.47;101305.97;4992374;28;20443;-80
2023/06/26 03:51:49;;;;;;;10.85;5.28;;;;;;;20.15;78.02;101307.19;4991368;28;20082;-81
2023/06/26 03:54:16;;;;;;;10.05;4.78;;;;;;;20.11;78.10;101320.22;4975591;28;20043;-81
2023/06/26 03:56:42;;;;;;;12.13;4.88;;;;;;;20.12;77.76;101307.44;4991292;28;20047;-81
2023/06/26 03:59:10;;;;;;;11.00;5.05;;;;;;;20.12;77.33;101318.25;4992823;28;20038;-80
2023/06/26 04:01:38;;;;;;;10.35;5.28;;;;;;;20.08;76.05;101317.75;4992756;28;20039;-83
2023/06/26 04:04:05;;;;;;;11.82;5.65;;;;;;;20.02;76.32;101331.25;4990504;28;20500;-81
2023/06/26 04:06:33;;;;;;;8.85;4.88;;;;;;;20.01;76.16;101332.47;4991119;28;20046;-81
2023/06/26 04:09:00;;;;;;;11.48;4.63;;;;;;;19.97;76.29;101337.41;4974296;28;20094;-82
2023/06/26 04:11:26;;;;;;;11.82;4.65;;;;;;;19.90;76.19;101338.63;4974671;28;20508;-81
2023/06/26 04:13:53;;;;;;;11.27;5.28;;;;;;;19.86;76.06;101335.44;4975699;28;20137;-81
2023/06/26 04:16:24;;;;;;;10.60;5.15;;;;;;;19.89;76.30;101342.56;4992422;28;20114;-80
2023/06/26 04:18:53;;;;;;;8.68;4.90;;;;;;;19.90;75.93;101348.72;4992331;28;20039;-81
2023/06/26 04:21:19;;;;;;;8.95;4.40;;;;;;;19.93;75.79;101351.16;4991956;28;20054;-80
2023/06/26 04:23:47;;;;;;;11.82;4.70;;;;;;;19.96;75.94;101352.16;4992101;28;20117;-80
2023/06/26 04:26:14;;;;;;;7.80;3.83;;;;;;;20.01;75.50;101346.00;4992608;28;20043;-79
2023/06/26 04:28:42;;;;;;;11.85;5.05;;;;;;;20.01;75.72;101350.66;4991438;28;20401;-80
2023/06/26 04:31:09;;;;;;;7.32;4.75;;;;;;;20.02;75.48;101352.13;4992139;28;20053;-81
2023/06/26 04:33:37;;;;;;;10.63;4.53;;;;;;;20.03;75.43;101354.34;4991979;28;20109;-79
2023/06/26 04:36:08;;;;;;;16.73;4.97;;;;;;;20.03;75.17;101357.06;4974919;28;20047;-80
2023/06/26 04:38:34;;;;;;;6.47;4.15;;;;;;;19.97;75.26;101365.19;4992582;28;20468;-81
2023/06/26 04:41:01;;;;;;;12.77;4.95;;;;;;;19.97;75.39;101367.16;4975455;28;20503;-83
2023/06/26 04:43:28;;;;;;;10.32;4.60;;;;;;;19.98;75.05;101355.84;4974140;28;20050;-82
2023/06/26 04:45:55;;;;;;;12.32;4.88;;;;;;;20.06;75.22;101366.88;4974569;28;20050;-80
2023/06/26 04:48:21;;;;;;;8.27;4.40;;;;;;;20.18;74.24;101373.03;4991190;28;20074;-79
2023/06/26 04:50:53;;;;;;;12.23;4.47;;;;;;;20.37;73.49;101379.44;4992132;28;20054;-78
2023/06/26 04:53:21;;;;;;;12.32;4.38;;;;;;;20.97;71.15;101382.56;4992171;28;20141;-80
2023/06/26 04:55:49;;;;;;;13.30;4.30;;;;;;;21.39;69.06;101397.72;4993199;28;20078;-82
2023/06/26 04:58:16;;;;;;;8.45;4.10;;;;;;;21.83;67.08;101390.59;4993072;28;20051;-78
2023/06/26 05:00:43;;;;;;;10.32;5.22;;;;;;;21.91;65.99;101386.09;4992294;28;20130;-78
2023/06/26 05:03:12;;;;;;;12.70;4.82;;;;;;;22.49;64.38;101385.91;4992070;28;20047;-78
2023/06/26 05:05:38;;;;;;;8.02;4.00;;;;;;;23.70;60.71;101395.19;4992455;28;20081;-78
2023/06/26 05:08:22;;;;;;;11.43;4.45;;;;;;;24.74;57.46;101409.63;4992607;28;20043;-79
2023/06/26 05:10:49;;;;;;;8.00;3.67;;;;;;;25.17;54.65;101406.63;4992145;28;20043;-78
2023/06/26 05:13:17;;;;;;;8.57;4.03;;;;;;;25.01;54.89;101400.22;4992980;28;20122;-78
2023/06/26 05:15:44;;;;;;;10.30;3.72;;;;;;;24.81;55.78;101406.28;4992782;28;20051;-79
2023/06/26 05:18:11;;;;;;;8.52;4.05;;;;;;;25.33;53.37;101405.53;4992312;28;20050;-78
2023/06/26 05:20:38;;;;;;;9.23;4.25;;;;;;;25.88;52.12;101411.06;4992381;28;20646;-77
2023/06/26 05:23:06;;;;;;;6.30;3.90;;;;;;;26.32;51.13;101412.03;4992660;28;20051;-78
2023/06/26 05:25:34;;;;;;;5.47;3.35;;;;;;;26.40;50.08;101422.97;4975011;28;20043;-78
2023/06/26 05:28:01;;;;;;;9.15;3.53;;;;;;;26.46;49.79;101431.75;4992197;28;20043;-78
2023/06/26 05:30:28;;;;;;;5.85;3.65;;;;;;;26.17;50.08;101426.22;4974925;28;20051;-77
2023/06/26 05:32:55;;;;;;;6.88;3.55;;;;;;;24.87;54.31;101426.69;4992166;28;20091;-81
2023/06/26 05:35:22;;;;;;;3.78;3.28;;;;;;;25.26;53.38;101428.69;4992329;28;20043;-79
2023/06/26 05:37:50;;;;;;;4.03;3.30;;;;;;;26.21;50.92;101437.56;4975181;28;20046;-77
2023/06/26 05:40:18;;;;;;;5.72;3.63;;;;;;;26.90;48.89;101430.59;4993625;28;20587;-78
2023/06/26 05:42:45;;;;;;;8.38;3.47;;;;;;;27.41;47.64;101440.88;4995546;28;20054;-79
2023/06/26 05:45:12;;;;;;;6.78;3.38;;;;;;;27.19;47.95;101439.50;4995785;28;20057;-77
2023/06/26 05:47:39;;;;;;;7.75;3.28;;;;;;;27.19;47.96;101434.03;4995019;28;20043;-81
2023/06/26 05:50:07;;;;;;;4.20;3.38;;;;;;;26.98;47.81;101446.34;4995708;28;20114;-77
2023/06/26 05:52:34;;;;;;;6.97;3.42;;;;;;;26.71;48.54;101441.06;4995249;28;20483;-77
2023/06/26 05:55:02;;;;;;;3.25;2.90;;;;;;;26.87;48.12;101453.53;4995906;28;20504;-76
2023/06/26 05:57:30;;;;;;;6.95;3.05;;;;;;;26.45;49.06;101450.13;4994028;28;20141;-77
2023/06/26 05:59:57;;;;;;;3.00;2.70;;;;;;;26.58;48.93;101454.78;4995244;28;20055;-77
2023/06/26 06:02:24;;;;;;;2.92;2.58;;;;;;;26.32;48.63;101468.59;4995331;28;20557;-78
2023/06/26 06:04:50;;;;;;;2.92;2.60;;;;;;;26.21;49.63;101464.09;4995451;28;20125;-77
2023/06/26 06:07:17;;;;;;;5.35;2.88;;;;;;;26.28;49.46;101482.53;4995660;28;20082;-78
2023/06/26 06:09:44;;;;;;;4.53;2.92;;;;;;;26.10;49.00;101484.19;4995402;28;20079;-79
2023/06/26 06:12:10;;;;;;;5.05;2.78;;;;;;;25.72;49.85;101491.97;4993900;28;20133;-76
2023/06/26 06:14:37;;;;;;;2.65;2.45;;;;;;;25.37;50.75;101486.97;4994720;28;20047;-78
2023/06/26 06:17:03;;;;;;;2.92;2.53;;;;;;;25.25;51.73;101489.16;4995408;28;20402;-77
2023/06/26 06:19:30;;;;;;;3.00;2.67;;;;;;;25.12;51.24;101498.09;4994965;28;20053;-77
2023/06/26 06:21:56;;;;;;;4.30;2.65;;;;;;;24.96;52.38;101501.09;4995300;28;20074;-77
2023/06/26 06:24:23;;;;;;;3.55;2.60;;;;;;;25.08;52.97;101502.38;4994669;28;20590;-76
2023/06/26 06:26:50;;;;;;;4.75;2.58;;;;;;;24.86;52.41;101506.91;4993819;28;20110;-77
2023/06/26 06:29:18;;;;;;;5.28;2.42;;;;;;;24.55;53.34;101507.69;4994943;28;20520;-77
2023/06/26 06:31:46;;;;;;;3.20;2.28;;;;;;;24.35;53.01;101521.88;4994818;28;20050;-78
2023/06/26 06:34:13;;;;;;;4.50;2.40;;;;;;;24.14;54.46;101516.19;4995056;28;20047;-78
2023/06/26 06:36:39;;;;;;;2.58;2.38;;;;;;;24.25;54.13;101524.97;4994700;28;20051;-81
2023/06/26 06:39:06;;;;;;;3.53;2.35;;;;;;;24.31;53.83;101529.59;4995210;28;20078;-81
2023/06/26 06:41:32;;;;;;;4.30;2.40;;;;;;;24.32;54.30;101541.94;4994709;28;20165;-82
2023/06/26 06:44:05;;;;;;;3.70;2.50;;;;;;;24.17;55.44;101537.66;4976741;28;20518;-79
2023/06/26 06:46:31;;;;;;;3.80;2.50;;;;;;;23.90;55.36;101546.91;4994638;28;20126;-79
2023/06/26 06:48:58;;;;;;;3.58;2.65;;;;;;;23.63;56.68;101551.44;4995001;28;20499;-80
2023/06/26 06:51:24;;;;;;;3.38;2.42;;;;;;;23.60;56.64;101560.59;4993391;28;20047;-82
2023/06/26 06:53:51;;;;;;;2.75;2.38;;;;;;;23.20;57.68;101565.66;4995184;28;20114;-82
2023/06/26 06:56:17;;;;;;;3.72;2.47;;;;;;;23.44;58.43;101572.38;4994991;28;20053;-77
2023/06/26 06:58:46;;;;;;;5.30;2.67;;;;;;;23.78;55.84;101559.16;4994064;28;20460;-74
2023/06/26 07:01:13;;;;;;;6.18;2.47;;;;;;;24.02;55.14;101550.22;4994480;28;20826;-76
2023/06/26 07:03:40;;;;;;;5.93;2.30;;;;;;;24.06;55.66;101545.22;4994316;28;20149;-75
2023/06/26 07:06:07;;;;;;;4.07;2.50;;;;;;;24.21;55.25;101559.84;4977342;28;20042;-75
2023/06/26 07:08:35;;;;;;;2.47;2.28;;;;;;;24.32;54.67;101567.16;4994135;28;20075;-74
2023/06/26 07:11:02;;;;;;;3.90;2.50;;;;;;;24.31;54.83;101564.97;4994222;28;20126;-74
2023/06/26 07:13:29;;;;;;;3.72;2.50;;;;;;;24.36;54.87;101569.59;4993675;28;20122;-77
2023/06/26 07:15:55;;;;;;;3.72;2.50;;;;;;;23.94;56.28;101574.56;4992927;28;20499;-75
2023/06/26 07:18:22;;;;;;;6.10;2.75;;;;;;;23.77;56.46;101577.47;4993793;28;20039;-76
2023/06/26 07:20:49;;;;;;;4.15;2.88;;;;;;;23.53;57.89;101594.53;4992542;28;20066;-76
2023/06/26 07:23:15;;;;;;;5.43;2.97;;;;;;;23.48;58.26;101594.56;4994381;28;20047;-75
2023/06/26 07:25:42;;;;;;;4.45;2.80;;;;;;;23.55;57.03;101594.03;4993913;28;20082;-75
2023/06/26 07:28:12;;;;;;;4.43;2.75;;;;;;;23.64;57.27;101604.53;4993838;28;20057;-75
2023/06/26 07:30:39;;;;;;;3.42;3.10;;;;;;;23.66;56.77;101580.28;4993729;28;20057;-76
2023/06/26 07:33:06;;;;;;;4.57;3.30;;;;;;;23.58;57.80;101591.03;4994275;28;20058;-77
2023/06/26 07:35:33;;;;;;;3.10;2.78;;;;;;;23.35;57.99;101597.88;4993925;28;20085;-76
2023/06/26 07:38:00;;;;;;;5.53;2.80;;;;;;;23.20;58.96;101597.50;4993791;28;20520;-76
2023/06/26 07:40:27;;;;;;;5.20;2.80;;;;;;;23.40;58.03;101601.78;4993390;28;20054;-77
2023/06/26 07:42:54;;;;;;;4.25;2.45;;;;;;;23.89;57.30;101600.56;4993569;28;20053;-76
2023/06/26 07:45:20;;;;;;;6.22;2.80;;;;;;;24.24;56.64;101607.78;4992282;28;20500;-75
2023/06/26 07:47:48;;;;;;;6.28;2.92;;;;;;;24.28;55.35;101602.09;4993280;28;20047;-75
2023/06/26 07:50:21;;;;;;;4.57;2.80;;;;;;;24.23;55.02;101609.03;4992110;28;20063;-76
2023/06/26 07:52:47;;;;;;;11.55;2.90;;;;;;;24.50;54.27;101606.47;4993861;28;20067;-76
2023/06/26 07:55:14;;;;;;;7.82;3.10;;;;;;;24.68;55.10;101611.19;4992069;28;20047;-75
2023/06/26 07:57:41;;;;;;;5.13;2.55;;;;;;;24.47;54.61;101619.13;4992931;28;20130;-76
2023/06/26 08:00:08;;;;;;;2.88;2.60;;;;;;;24.20;55.60;101622.94;4993421;28;20107;-76
2023/06/26 08:02:40;;;;;;;5.65;2.50;;;;;;;23.94;56.27;101629.69;4991133;28;20199;-76
2023/06/26 08:05:07;;;;;;;6.43;2.97;;;;;;;23.81;56.37;101623.41;4993281;28;20054;-77
2023/06/26 08:07:34;;;;;;;3.30;2.58;;;;;;;23.63;55.84;101621.34;4992875;28;20082;-76
2023/06/26 08:10:00;;;;;;;7.45;2.72;;;;;;;24.08;56.79;101625.03;4992945;28;20563;-77
2023/06/26 08:12:27;;;;;;;3.67;2.63;;;;;;;24.38;54.59;101616.06;4993003;28;20526;-76
2023/06/26 08:14:54;;;;;;;4.13;3.05;;;;;;;24.57;54.83;101619.50;4993293;28;20083;-76
2023/06/26 08:17:20;;;;;;;6.82;2.95;;;;;;;24.44;54.64;101616.69;4993079;28;20035;-76
2023/06/26 08:19:47;;;;;;;4.65;2.40;;;;;;;24.78;54.09;101617.72;4975840;28;20050;-76
2023/06/26 08:22:13;;;;;;;6.00;2.88;;;;;;;25.03;53.12;101626.50;4993438;28;20587;-75
2023/06/26 08:24:40;;;;;;;6.38;2.90;;;;;;;25.01;53.11;101637.19;4992979;28;20081;-75
2023/06/26 08:27:07;;;;;;;9.10;2.80;;;;;;;24.45;52.94;101637.22;4992813;28;20053;-76
2023/06/26 08:29:34;;;;;;;12.25;3.70;;;;;;;24.20;53.58;101634.56;4992799;28;20047;-75
2023/06/26 08:32:02;;;;;;;2.63;2.05;;;;;;;24.52;53.24;101628.47;4993123;28;20058;-75
2023/06/26 08:34:29;;;;;;;4.28;2.13;;;;;;;24.61;51.52;101641.72;4992869;28;20039;-76
2023/06/26 08:36:55;;;;;;;5.43;2.13;;;;;;;24.63;50.23;101643.91;4975807;28;20504;-77
2023/06/26 08:39:22;;;;;;;7.60;2.10;;;;;;;24.47;50.40;101643.63;4992292;28;20424;-75
2023/06/26 08:41:49;;;;;;;6.63;1.90;;;;;;;24.86;49.79;101643.06;4992856;28;20057;-75
2023/06/26 08:44:15;;;;;;;3.70;1.80;;;;;;;25.09;48.10;101645.50;4993117;28;20555;-76
2023/06/26 08:46:43;;;;;;;2.65;1.90;;;;;;;25.22;50.24;101648.22;4992967;28;20050;-76
2023/06/26 08:49:37;;;;;;;5.75;2.30;;;;;;;25.15;49.79;101651.59;4991662;28;20504;-77
2023/06/26 08:52:13;;;;;;;3.67;1.73;;;;;;;24.26;50.72;101657.00;4983201;28;20065;-77
2023/06/26 08:54:45;;;;;;;2.83;1.50;;;;;;;24.15;51.99;101668.00;4992452;28;20046;-77
2023/06/26 08:57:14;;;;;;;5.30;1.77;;;;;;;24.57;49.69;101669.22;4993258;28;20078;-76
2023/06/26 08:59:40;;;;;;;3.03;1.70;;;;;;;24.86;48.78;101661.38;4992452;28;20076;-76
2023/06/26 09:02:07;;;;;;;4.30;1.75;;;;;;;25.29;48.22;101669.41;4992960;28;20512;-77
2023/06/26 09:04:35;;;;;;;3.67;1.90;;;;;;;25.58;47.92;101667.69;4991392;28;20049;-77
2023/06/26 09:07:01;;;;;;;5.97;1.80;;;;;;;25.50;46.82;101692.13;4992794;28;20480;-77
2023/06/26 09:09:28;;;;;;;8.68;1.60;;;;;;;25.09;48.06;101681.63;4992044;28;20047;-77
2023/06/26 09:11:55;;;;;;;4.50;1.77;;;;;;;24.80;47.60;101691.41;4992636;28;20063;-78
2023/06/26 09:14:22;;;;;;;6.82;1.73;;;;;;;24.09;49.45;101694.50;4992752;28;20055;-78
2023/06/26 09:16:49;;;;;;;38.35;30.27;;;;;;;24.23;49.90;101695.34;4995323;28;20118;-77
2023/06/26 09:19:16;;;;;;;26.10;18.58;;;;;;;25.08;48.82;101696.50;4993805;28;20053;-77
2023/06/26 09:21:43;;;;;;;4.70;1.80;;;;;;;25.60;46.24;101708.78;4978406;28;20514;-77
2023/06/26 09:24:10;;;;;;;4.03;1.85;;;;;;;25.69;45.66;101710.41;4994180;28;20051;-78
2023/06/26 09:26:38;;;;;;;3.42;1.70;;;;;;;25.09;46.13;101697.25;4978174;28;20543;-78
2023/06/26 09:29:06;;;;;;;1.92;1.60;;;;;;;25.33;46.51;101710.00;4995991;28;20496;-77
2023/06/26 09:31:33;;;;;;;2.00;1.80;;;;;;;25.42;47.07;101712.31;4995885;28;20050;-78
2023/06/26 09:34:07;;;;;;;3.25;1.75;;;;;;;25.37;45.70;101724.78;4995938;28;20046;-78
2023/06/26 09:36:36;;;;;;;3.30;1.65;;;;;;;24.64;47.08;101724.34;4978326;28;20571;-78
2023/06/26 09:39:10;;;;;;;1.75;1.60;;;;;;;24.32;48.03;101713.34;4995767;28;20501;-78
2023/06/26 09:41:38;;;;;;;3.78;1.83;;;;;;;24.39;47.49;101718.94;4977896;28;20697;-76
2023/06/26 09:44:06;;;;;;;6.43;1.88;;;;;;;24.28;48.11;101719.06;4994373;28;20050;-78
2023/06/26 09:46:33;;;;;;;2.38;1.80;;;;;;;24.56;47.86;101730.34;4995255;28;20088;-76
2023/06/26 09:49:13;;;;;;;2.10;1.80;;;;;;;25.15;47.17;101728.59;4995764;28;20051;-81
2023/06/26 09:51:42;;;;;;;4.35;1.80;;;;;;;25.03;45.48;101735.47;4995509;28;20074;-75
2023/06/26 09:54:09;;;;;;;4.13;2.10;;;;;;;24.46;46.85;101733.94;4995012;28;20051;-76
2023/06/26 09:56:36;;;;;;;3.65;2.25;;;;;;;24.25;47.01;101737.16;4995207;28;20050;-75
2023/06/26 09:59:04;;;;;;;2.33;1.80;;;;;;;24.05;47.36;101743.00;4995507;28;20050;-75
2023/06/26 10:01:32;;;;;;;3.45;1.70;;;;;;;24.00;47.17;101735.66;4995276;28;20412;-76
2023/06/26 10:04:00;;;;;;;5.07;1.60;;;;;;;24.63;45.70;101747.34;4995309;28;20582;-75
2023/06/26 10:06:41;;;;;;;2.55;1.40;;;;;;;25.14;45.06;101743.47;4994973;28;20551;-76
2023/06/26 10:09:08;;;;;;;2.83;2.00;;;;;;;25.28;44.04;101749.69;4995389;28;20050;-76
2023/06/26 10:11:39;;;;;;;7.38;1.70;;;;;;;24.68;45.50;101752.00;4994433;28;20055;-76
2023/06/26 10:14:09;;;;;;;6.50;1.88;;;;;;;24.35;46.57;101764.75;4995406;28;20050;-76
2023/06/26 10:16:46;;;;;;;8.38;1.98;;;;;;;24.67;45.77;101764.88;4995609;28;20105;-76
2023/06/26 10:19:16;;;;;;;4.13;1.90;;;;;;;24.74;45.18;101766.28;4975842;28;20126;-77
2023/06/26 10:21:44;;;;;;;4.97;1.77;;;;;;;24.85;44.68;101772.31;4975082;28;20485;-77
2023/06/26 10:24:13;;;;;;;5.13;1.83;;;;;;;24.93;43.97;101775.19;4975777;28;20054;-77
2023/06/26 10:26:44;;;;;;;3.25;1.45;;;;;;;24.45;44.79;101790.34;4974292;28;20053;-77
2023/06/26 10:29:13;;;;;;;2.03;1.38;;;;;;;24.02;44.82;101784.09;4975773;28;20047;-75
2023/06/26 10:31:45;;;;;;;2.15;1.42;;;;;;;24.04;45.46;101770.72;4975164;28;20039;-77
2023/06/26 10:34:12;;;;;;;2.83;1.40;;;;;;;24.65;43.89;101772.81;4989906;28;20043;-75
2023/06/26 10:36:39;;;;;;;2.38;2.00;;;;;;;24.81;44.71;101785.47;4994252;28;20475;-75
2023/06/26 10:39:06;;;;;;;4.85;1.33;;;;;;;25.10;43.16;101783.16;4994669;28;20118;-75
2023/06/26 10:41:42;;;;;;;2.67;1.50;;;;;;;24.90;43.47;101784.38;4994447;28;20089;-75
2023/06/26 10:44:41;;;;;;;4.88;1.40;;;;;;;25.41;43.87;101779.00;4994993;28;20492;-76
2023/06/26 10:47:09;;;;;;;3.17;1.42;;;;;;;25.62;41.93;101776.41;4994645;28;20134;-75
2023/06/26 10:49:39;;;;;;;4.20;1.48;;;;;;;25.78;42.05;101787.09;4994230;28;20047;-76
2023/06/26 10:52:06;;;;;;;1.67;1.20;;;;;;;25.57;41.24;101786.19;4994428;28;20183;-76
2023/06/26 10:54:33;;;;;;;1.45;1.35;;;;;;;25.43;40.63;101792.84;4994546;28;20051;-75
2023/06/26 10:57:01;;;;;;;8.27;1.35;;;;;;;25.43;41.62;101796.28;4976821;28;20495;-76
2023/06/26 10:59:30;;;;;;;4.75;1.38;;;;;;;25.39;41.16;101806.03;4994198;28;20047;-76
2023/06/26 11:01:59;;;;;;;5.88;1.40;;;;;;;25.71;41.16;101801.34;4994332;28;20058;-77
2023/06/26 11:04:52;;;;;;;2.15;1.58;;;;;;;26.19;40.06;101804.97;4993541;28;20470;-76
2023/06/26 11:07:24;;;;;;;1.65;1.15;;;;;;;26.08;39.75;101797.72;4994275;28;20078;-77
2023/06/26 11:10:06;;;;;;;5.20;1.42;;;;;;;26.15;40.45;101810.75;4993838;28;20047;-76
2023/06/26 11:12:41;;;;;;;1.85;1.23;;;;;;;26.30;39.66;101804.78;4994455;28;20049;-77
2023/06/26 11:15:12;;;;;;;28.02;24.35;;;;;;;26.27;39.17;101807.81;4994260;28;20538;-77
2023/06/26 11:17:41;;;;;;;2.58;1.80;;;;;;;26.36;39.58;101807.44;4993886;28;20046;-77
2023/06/26 11:20:10;;;;;;;3.03;1.60;;;;;;;26.15;39.19;101818.94;4993731;28;20043;-79
2023/06/26 11:22:38;;;;;;;2.08;1.30;;;;;;;25.78;39.22;101816.34;4993758;28;20047;-78
2023/06/26 11:25:06;;;;;;;3.55;1.40;;;;;;;25.88;39.85;101825.63;4993919;28;20562;-78
2023/06/26 11:27:43;;;;;;;6.03;1.50;;;;;;;26.06;40.95;101822.06;4993768;28;20129;-78
2023/06/26 11:30:11;;;;;;;1.98;1.45;;;;;;;25.53;40.51;101834.81;4994165;28;20054;-78